sensor_id;sensor_type;location;lat;lon;timestamp;pressure;altitude;pressure_sealevel;temperature;humidity
20909;BME280;10614;53.198;6.570;2023-02-28T00:00:26;103272.06;;;5.34;100.00
20909;BME280;10614;53.198;6.570;2023-02-28T00:02:27;103280.75;;;5.35;100.00
20909;BME280;10614;53.198;6.570;2023-02-28T00:04:29;103272.06;;;5.34;100.00
20909;BME280;10614;53.198;6.570;2023-02-28T00:06:30;103269.44;;;5.34;100.00
20909;BME280;10614;53.198;6.570;2023-02-28T00:08:33;103258.13;;;5.35;100.00
20909;BME280;10614;53.198;6.570;2023-02-28T00:10:35;103252.84;;;5.32;100.00
20909;BME280;10614;53.198;6.570;2023-02-28T00:12:37;103261.59;;;5.34;100.00
20909;BME280;10614;53.198;6.570;2023-02-28T00:14:39;103258.09;;;5.34;100.00
20909;BME280;10614;53.198;6.570;2023-02-28T00:16:41;103254.66;;;5.35;100.00
20909;BME280;10614;53.198;6.570;2023-02-28T00:18:45;103259.00;;;5.34;100.00
20909;BME280;10614;53.198;6.570;2023-02-28T00:20:47;103249.44;;;5.35;100.00
20909;BME280;10614;53.198;6.570;2023-02-28T00:22:51;103246.81;;;5.35;100.00
20909;BME280;10614;53.198;6.570;2023-02-28T00:24:54;103243.31;;;5.34;100.00
20909;BME280;10614;53.198;6.570;2023-02-28T00:26:55;103239.78;;;5.32;100.00
20909;BME280;10614;53.198;6.570;2023-02-28T00:28:57;103237.16;;;5.31;100.00
20909;BME280;10614;53.198;6.570;2023-02-28T00:30:59;103241.53;;;5.32;100.00
20909;BME280;10614;53.198;6.570;2023-02-28T00:33:01;103234.53;;;5.31;100.00
20909;BME280;10614;53.198;6.570;2023-02-28T00:35:04;103239.72;;;5.29;100.00
20909;BME280;10614;53.198;6.570;2023-02-28T00:37:08;103239.66;;;5.26;100.00
20909;BME280;10614;53.198;6.570;2023-02-28T00:39:13;103241.41;;;5.25;100.00
20909;BME280;10614;53.198;6.570;2023-02-28T00:41:16;103241.34;;;5.22;100.00
20909;BME280;10614;53.198;6.570;2023-02-28T00:43:18;103240.38;;;5.19;100.00
20909;BME280;10614;53.198;6.570;2023-02-28T00:45:19;103244.75;;;5.18;100.00
20909;BME280;10614;53.198;6.570;2023-02-28T00:47:21;103245.66;;;5.20;100.00
20909;BME280;10614;53.198;6.570;2023-02-28T00:49:23;103247.38;;;5.20;100.00
20909;BME280;10614;53.198;6.570;2023-02-28T00:51:25;103248.28;;;5.22;100.00
20909;BME280;10614;53.198;6.570;2023-02-28T00:53:27;103247.44;;;5.23;100.00
20909;BME280;10614;53.198;6.570;2023-02-28T00:55:28;103243.97;;;5.24;100.00
20909;BME280;10614;53.198;6.570;2023-02-28T00:57:31;103237.88;;;5.23;100.00
20909;BME280;10614;53.198;6.570;2023-02-28T00:59:36;103244.88;;;5.24;100.00
20909;BME280;10614;53.198;6.570;2023-02-28T01:01:39;103242.22;;;5.23;100.00
20909;BME280;10614;53.198;6.570;2023-02-28T01:03:40;103243.09;;;5.23;100.00
20909;BME280;10614;53.198;6.570;2023-02-28T01:05:43;103238.75;;;5.22;100.00
20909;BME280;10614;53.198;6.570;2023-02-28T01:07:45;103239.59;;;5.23;100.00
20909;BME280;10614;53.198;6.570;2023-02-28T01:09:46;103241.34;;;5.22;100.00
20909;BME280;10614;53.198;6.570;2023-02-28T01:11:49;103229.16;;;5.23;100.00
20909;BME280;10614;53.198;6.570;2023-02-28T01:13:52;103234.38;;;5.23;100.00
20909;BME280;10614;53.198;6.570;2023-02-28T01:15:55;103226.56;;;5.23;100.00
20909;BME280;10614;53.198;6.570;2023-02-28T01:17:57;103233.53;;;5.24;100.00
20909;BME280;10614;53.198;6.570;2023-02-28T01:20:00;103230.91;;;5.24;100.00
20909;BME280;10614;53.198;6.570;2023-02-28T01:22:05;103231.81;;;5.24;100.00
20909;BME280;10614;53.198;6.570;2023-02-28T01:24:07;103231.81;;;5.24;100.00
20909;BME280;10614;53.198;6.570;2023-02-28T01:26:10;103231.78;;;5.23;100.00
20909;BME280;10614;53.198;6.570;2023-02-28T01:28:14;103227.38;;;5.22;100.00
20909;BME280;10614;53.198;6.570;2023-02-28T01:30:17;103231.72;;;5.21;100.00
20909;BME280;10614;53.198;6.570;2023-02-28T01:32:18;103227.38;;;5.20;100.00
20909;BME280;10614;53.198;6.570;2023-02-28T01:34:20;103231.72;;;5.20;100.00
20909;BME280;10614;53.198;6.570;2023-02-28T01:36:24;103221.13;;;5.14;100.00
20909;BME280;10614;53.198;6.570;2023-02-28T01:38:26;103230.81;;;5.19;100.00
20909;BME280;10614;53.198;6.570;2023-02-28T01:40:28;103228.19;;;5.18;100.00
20909;BME280;10614;53.198;6.570;2023-02-28T01:42:30;103222.97;;;5.18;100.00
20909;BME280;10614;53.198;6.570;2023-02-28T01:47:11;103226.41;;;5.17;100.00
20909;BME280;10614;53.198;6.570;2023-02-28T01:49:15;103226.41;;;5.17;100.00
20909;BME280;10614;53.198;6.570;2023-02-28T01:51:21;103218.53;;;5.14;100.00
20909;BME280;10614;53.198;6.570;2023-02-28T01:53:29;103215.03;;;5.13;100.00
20909;BME280;10614;53.198;6.570;2023-02-28T01:55:34;103213.25;;;5.12;100.00
20909;BME280;10614;53.198;6.570;2023-02-28T01:57:38;103203.69;;;5.13;100.00
20909;BME280;10614;53.198;6.570;2023-02-28T01:59:43;103198.47;;;5.11;100.00
20909;BME280;10614;53.198;6.570;2023-02-28T02:01:49;103202.81;;;5.12;100.00
20909;BME280;10614;53.198;6.570;2023-02-28T02:03:54;103204.59;;;5.13;100.00
20909;BME280;10614;53.198;6.570;2023-02-28T02:05:56;103203.69;;;5.13;100.00
20909;BME280;10614;53.198;6.570;2023-02-28T02:08:03;103202.00;;;5.13;100.00
20909;BME280;10614;53.198;6.570;2023-02-28T02:10:10;103191.50;;;5.12;100.00
20909;BME280;10614;53.198;6.570;2023-02-28T02:12:25;103185.41;;;5.13;100.00
20909;BME280;10614;53.198;6.570;2023-02-28T02:14:38;103192.38;;;5.12;100.00
20909;BME280;10614;53.198;6.570;2023-02-28T02:16:54;103194.06;;;5.10;100.00
20909;BME280;10614;53.198;6.570;2023-02-28T02:19:04;103196.69;;;5.10;100.00
20909;BME280;10614;53.198;6.570;2023-02-28T02:28:56;103188.75;;;5.04;100.00
20909;BME280;10614;53.198;6.570;2023-02-28T02:31:29;103185.25;;;5.03;100.00
20909;BME280;10614;53.198;6.570;2023-02-28T02:36:21;103179.13;;;5.03;100.00
20909;BME280;10614;53.198;6.570;2023-02-28T02:38:32;103178.25;;;5.02;100.00
20909;BME280;10614;53.198;6.570;2023-02-28T02:40:38;103180.88;;;5.02;100.00
20909;BME280;10614;53.198;6.570;2023-02-28T02:42:49;103183.47;;;5.02;100.00
20909;BME280;10614;53.198;6.570;2023-02-28T02:44:56;103184.34;;;5.03;100.00
20909;BME280;10614;53.198;6.570;2023-02-28T02:47:05;103181.75;;;5.03;100.00
20909;BME280;10614;53.198;6.570;2023-02-28T02:49:13;103188.69;;;5.02;100.00
20909;BME280;10614;53.198;6.570;2023-02-28T02:51:21;103187.84;;;5.02;100.00
20909;BME280;10614;53.198;6.570;2023-02-28T02:53:28;103192.13;;;5.00;100.00
20909;BME280;10614;53.198;6.570;2023-02-28T02:55:34;103190.41;;;5.00;100.00
20909;BME280;10614;53.198;6.570;2023-02-28T02:57:43;103190.38;;;4.99;100.00
20909;BME280;10614;53.198;6.570;2023-02-28T02:59:46;103193.00;;;4.99;100.00
20909;BME280;10614;53.198;6.570;2023-02-28T03:01:53;103190.34;;;4.97;100.00
20909;BME280;10614;53.198;6.570;2023-02-28T03:03:57;103192.09;;;4.97;100.00
20909;BME280;10614;53.198;6.570;2023-02-28T03:06:00;103189.44;;;4.95;100.00
20909;BME280;10614;53.198;6.570;2023-02-28T03:08:05;103192.03;;;4.95;100.00
20909;BME280;10614;53.198;6.570;2023-02-28T03:10:32;103194.66;;;4.95;100.00
20909;BME280;10614;53.198;6.570;2023-02-28T03:12:41;103191.16;;;4.95;100.00
20909;BME280;10614;53.198;6.570;2023-02-28T03:14:55;103185.06;;;4.94;100.00
20909;BME280;10614;53.198;6.570;2023-02-28T03:17:08;103190.25;;;4.93;100.00
20909;BME280;10614;53.198;6.570;2023-02-28T03:19:26;103195.44;;;4.91;100.00
20909;BME280;10614;53.198;6.570;2023-02-28T03:21:36;103200.63;;;4.91;100.00
20909;BME280;10614;53.198;6.570;2023-02-28T03:23:45;103203.25;;;4.90;100.00
20909;BME280;10614;53.198;6.570;2023-02-28T03:25:56;103209.28;;;4.87;100.00
20909;BME280;10614;53.198;6.570;2023-02-28T03:28:04;103209.22;;;4.85;100.00
20909;BME280;10614;53.198;6.570;2023-02-28T03:30:11;103205.75;;;4.85;100.00
20909;BME280;10614;53.198;6.570;2023-02-28T03:32:23;103198.75;;;4.82;100.00
20909;BME280;10614;53.198;6.570;2023-02-28T03:34:31;103198.75;;;4.82;100.00
20909;BME280;10614;53.198;6.570;2023-02-28T03:36:38;103190.00;;;4.80;100.00
20909;BME280;10614;53.198;6.570;2023-02-28T03:38:47;103197.78;;;4.79;100.00
20909;BME280;10614;53.198;6.570;2023-02-28T03:40:56;103202.94;;;4.77;100.00
20909;BME280;10614;53.198;6.570;2023-02-28T03:43:03;103195.94;;;4.75;100.00
20909;BME280;10614;53.198;6.570;2023-02-28T03:45:11;103199.41;;;4.74;100.00
20909;BME280;10614;53.198;6.570;2023-02-28T03:47:16;103201.97;;;4.72;100.00
20909;BME280;10614;53.198;6.570;2023-02-28T03:49:20;103208.00;;;4.70;100.00
20909;BME280;10614;53.198;6.570;2023-02-28T03:51:26;103207.13;;;4.69;100.00
20909;BME280;10614;53.198;6.570;2023-02-28T03:53:32;103201.84;;;4.66;100.00
20909;BME280;10614;53.198;6.570;2023-02-28T03:55:42;103207.03;;;4.64;100.00
20909;BME280;10614;53.198;6.570;2023-02-28T03:57:55;103203.47;;;4.61;100.00
20909;BME280;10614;53.198;6.570;2023-02-28T04:00:00;103201.66;;;4.58;100.00
20909;BME280;10614;53.198;6.570;2023-02-28T04:02:06;103201.66;;;4.58;100.00
20909;BME280;10614;53.198;6.570;2023-02-28T04:04:09;103202.53;;;4.57;100.00
20909;BME280;10614;53.198;6.570;2023-02-28T04:06:15;103200.72;;;4.55;100.00
20909;BME280;10614;53.198;6.570;2023-02-28T04:08:18;103197.25;;;4.54;100.00
20909;BME280;10614;53.198;6.570;2023-02-28T04:10:20;103203.28;;;4.53;100.00
20909;BME280;10614;53.198;6.570;2023-02-28T04:12:23;103195.41;;;4.50;100.00
20909;BME280;10614;53.198;6.570;2023-02-28T04:14:25;103204.97;;;4.50;100.00
20909;BME280;10614;53.198;6.570;2023-02-28T04:16:29;103204.91;;;4.48;100.00
20909;BME280;10614;53.198;6.570;2023-02-28T04:18:30;103210.19;;;4.50;100.00
20909;BME280;10614;53.198;6.570;2023-02-28T04:20:32;103208.34;;;4.46;100.00
20909;BME280;10614;53.198;6.570;2023-02-28T04:22:34;103214.44;;;4.46;100.00
20909;BME280;10614;53.198;6.570;2023-02-28T04:24:36;103209.16;;;4.44;100.00
20909;BME280;10614;53.198;6.570;2023-02-28T04:26:43;103209.16;;;4.43;100.00
20909;BME280;10614;53.198;6.570;2023-02-28T04:28:46;103210.88;;;4.42;100.00
20909;BME280;10614;53.198;6.570;2023-02-28T04:30:54;103211.72;;;4.41;100.00
20909;BME280;10614;53.198;6.570;2023-02-28T04:32:57;103208.19;;;4.39;100.00
20909;BME280;10614;53.198;6.570;2023-02-28T04:34:59;103214.28;;;4.40;100.00
20909;BME280;10614;53.198;6.570;2023-02-28T04:37:03;103210.78;;;4.38;100.00
20909;BME280;10614;53.198;6.570;2023-02-28T04:39:05;103209.00;;;4.37;100.00
20909;BME280;10614;53.198;6.570;2023-02-28T04:41:07;103215.91;;;4.35;100.00
20909;BME280;10614;53.198;6.570;2023-02-28T04:43:09;103212.34;;;4.31;100.00
20909;BME280;10614;53.198;6.570;2023-02-28T04:45:12;103215.78;;;4.29;100.00
20909;BME280;10614;53.198;6.570;2023-02-28T04:47:13;103214.91;;;4.30;100.00
20909;BME280;10614;53.198;6.570;2023-02-28T04:49:15;103214.88;;;4.28;100.00
20909;BME280;10614;53.198;6.570;2023-02-28T04:51:18;103217.47;;;4.27;100.00
20909;BME280;10614;53.198;6.570;2023-02-28T04:53:22;103224.34;;;4.25;100.00
20909;BME280;10614;53.198;6.570;2023-02-28T04:55:24;103225.19;;;4.23;100.00
20909;BME280;10614;53.198;6.570;2023-02-28T04:57:26;103219.94;;;4.22;100.00
20909;BME280;10614;53.198;6.570;2023-02-28T04:59:27;103221.63;;;4.20;100.00
20909;BME280;10614;53.198;6.570;2023-02-28T05:01:32;103220.75;;;4.19;100.00
20909;BME280;10614;53.198;6.570;2023-02-28T05:03:35;103218.97;;;4.18;100.00
20909;BME280;10614;53.198;6.570;2023-02-28T05:05:36;103217.22;;;4.17;100.00
20909;BME280;10614;53.198;6.570;2023-02-28T05:07:38;103223.25;;;4.15;100.00
20909;BME280;10614;53.198;6.570;2023-02-28T05:09:42;103224.06;;;4.14;100.00
20909;BME280;10614;53.198;6.570;2023-02-28T05:11:45;103230.06;;;4.10;100.00
20909;BME280;10614;53.198;6.570;2023-02-28T05:13:46;103224.81;;;4.08;100.00
20909;BME280;10614;53.198;6.570;2023-02-28T05:15:48;103218.69;;;4.06;100.00
20909;BME280;10614;53.198;6.570;2023-02-28T05:17:51;103220.38;;;4.04;100.00
20909;BME280;10614;53.198;6.570;2023-02-28T05:19:53;103220.28;;;4.01;100.00
20909;BME280;10614;53.198;6.570;2023-02-28T05:21:55;103219.38;;;3.99;100.00
20909;BME280;10614;53.198;6.570;2023-02-28T05:23:58;103220.19;;;3.98;100.00
20909;BME280;10614;53.198;6.570;2023-02-28T05:26:00;103214.97;;;3.96;100.00
20909;BME280;10614;53.198;6.570;2023-02-28T05:28:02;103213.16;;;3.94;100.00
20909;BME280;10614;53.198;6.570;2023-02-28T05:30:05;103215.78;;;3.94;100.00
20909;BME280;10614;53.198;6.570;2023-02-28T05:32:11;103224.41;;;3.93;100.00
20909;BME280;10614;53.198;6.570;2023-02-28T05:34:14;103228.69;;;3.91;100.00
20909;BME280;10614;53.198;6.570;2023-02-28T05:36:16;103226.09;;;3.91;100.00
20909;BME280;10614;53.198;6.570;2023-02-28T05:38:17;103214.78;;;3.89;100.00
20909;BME280;10614;53.198;6.570;2023-02-28T05:40:21;103217.38;;;3.89;100.00
20909;BME280;10614;53.198;6.570;2023-02-28T05:42:23;103214.59;;;3.83;100.00
20909;BME280;10614;53.198;6.570;2023-02-28T05:44:25;103221.66;;;3.87;100.00
20909;BME280;10614;53.198;6.570;2023-02-28T05:46:27;103222.41;;;3.83;100.00
20909;BME280;10614;53.198;6.570;2023-02-28T05:48:29;103230.34;;;3.87;100.00
20909;BME280;10614;53.198;6.570;2023-02-28T05:50:32;103230.31;;;3.86;100.00
20909;BME280;10614;53.198;6.570;2023-02-28T05:52:34;103232.91;;;3.84;100.00
20909;BME280;10614;53.198;6.570;2023-02-28T05:54:36;103232.84;;;3.83;100.00
20909;BME280;10614;53.198;6.570;2023-02-28T05:56:37;103235.44;;;3.83;100.00
20909;BME280;10614;53.198;6.570;2023-02-28T05:58:41;103230.25;;;3.83;100.00
20909;BME280;10614;53.198;6.570;2023-02-28T06:00:42;103236.25;;;3.80;100.00
20909;BME280;10614;53.198;6.570;2023-02-28T06:02:44;103233.66;;;3.80;100.00
20909;BME280;10614;53.198;6.570;2023-02-28T06:04:46;103237.06;;;3.77;100.00
20909;BME280;10614;53.198;6.570;2023-02-28T06:06:49;103228.31;;;3.75;100.00
20909;BME280;10614;53.198;6.570;2023-02-28T06:08:51;103233.47;;;3.74;100.00
20909;BME280;10614;53.198;6.570;2023-02-28T06:10:53;103233.44;;;3.72;100.00
20909;BME280;10614;53.198;6.570;2023-02-28T06:12:55;103234.28;;;3.71;100.00
20909;BME280;10614;53.198;6.570;2023-02-28T06:15:01;103238.66;;;3.72;100.00
20909;BME280;10614;53.198;6.570;2023-02-28T06:17:04;103237.75;;;3.72;100.00
20909;BME280;10614;53.198;6.570;2023-02-28T06:19:06;103239.50;;;3.71;100.00
20909;BME280;10614;53.198;6.570;2023-02-28T06:21:08;103242.94;;;3.70;100.00
20909;BME280;10614;53.198;6.570;2023-02-28T06:23:11;103244.66;;;3.70;100.00
20909;BME280;10614;53.198;6.570;2023-02-28T06:25:13;103249.84;;;3.70;100.00
20909;BME280;10614;53.198;6.570;2023-02-28T06:27:15;103248.97;;;3.69;100.00
20909;BME280;10614;53.198;6.570;2023-02-28T06:29:17;103244.56;;;3.67;100.00
20909;BME280;10614;53.198;6.570;2023-02-28T06:31:19;103247.19;;;3.67;100.00
20909;BME280;10614;53.198;6.570;2023-02-28T06:33:21;103251.50;;;3.66;100.00
20909;BME280;10614;53.198;6.570;2023-02-28T06:35:23;103251.47;;;3.65;100.00
20909;BME280;10614;53.198;6.570;2023-02-28T06:37:26;103249.53;;;3.57;100.00
20909;BME280;10614;53.198;6.570;2023-02-28T06:39:29;103260.94;;;3.63;100.00
20909;BME280;10614;53.198;6.570;2023-02-28T06:41:31;103261.75;;;3.60;100.00
20909;BME280;10614;53.198;6.570;2023-02-28T06:43:40;103266.03;;;3.58;100.00
20909;BME280;10614;53.198;6.570;2023-02-28T06:45:43;103270.34;;;3.56;100.00
20909;BME280;10614;53.198;6.570;2023-02-28T06:47:47;103277.13;;;3.51;100.00
20909;BME280;10614;53.198;6.570;2023-02-28T06:49:52;103279.63;;;3.48;100.00
20909;BME280;10614;53.198;6.570;2023-02-28T06:51:54;103276.97;;;3.45;100.00
20909;BME280;10614;53.198;6.570;2023-02-28T06:53:56;103290.91;;;3.47;100.00
20909;BME280;10614;53.198;6.570;2023-02-28T06:55:59;103286.53;;;3.46;100.00
20909;BME280;10614;53.198;6.570;2023-02-28T06:58:00;103276.97;;;3.45;100.00
20909;BME280;10614;53.198;6.570;2023-02-28T07:00:04;103287.31;;;3.43;100.00
20909;BME280;10614;53.198;6.570;2023-02-28T07:02:08;103280.31;;;3.41;100.00
20909;BME280;10614;53.198;6.570;2023-02-28T07:04:09;103284.63;;;3.40;100.00
20909;BME280;10614;53.198;6.570;2023-02-28T07:06:13;103284.63;;;3.40;100.00
20909;BME280;10614;53.198;6.570;2023-02-28T07:08:18;103288.13;;;3.41;100.00
20909;BME280;10614;53.198;6.570;2023-02-28T07:10:19;103286.38;;;3.40;100.00
20909;BME280;10614;53.198;6.570;2023-02-28T07:12:23;103294.19;;;3.40;100.00
20909;BME280;10614;53.198;6.570;2023-02-28T07:14:25;103298.44;;;3.37;100.00
20909;BME280;10614;53.198;6.570;2023-02-28T07:16:27;103298.41;;;3.36;100.00
20909;BME280;10614;53.198;6.570;2023-02-28T07:18:29;103299.25;;;3.35;100.00
20909;BME280;10614;53.198;6.570;2023-02-28T07:20:31;103307.09;;;3.36;100.00
20909;BME280;10614;53.198;6.570;2023-02-28T07:22:32;103307.09;;;3.36;100.00
20909;BME280;10614;53.198;6.570;2023-02-28T07:24:34;103311.34;;;3.34;100.00
20909;BME280;10614;53.198;6.570;2023-02-28T07:26:35;103309.66;;;3.35;100.00
20909;BME280;10614;53.198;6.570;2023-02-28T07:28:38;103311.34;;;3.34;100.00
20909;BME280;10614;53.198;6.570;2023-02-28T07:30:42;103306.06;;;3.31;100.00
20909;BME280;10614;53.198;6.570;2023-02-28T07:32:44;103306.81;;;3.27;100.00
20909;BME280;10614;53.198;6.570;2023-02-28T07:34:46;103303.34;;;3.27;100.00
20909;BME280;10614;53.198;6.570;2023-02-28T07:36:48;103300.72;;;3.27;100.00
20909;BME280;10614;53.198;6.570;2023-02-28T07:38:53;103302.41;;;3.25;100.00
20909;BME280;10614;53.198;6.570;2023-02-28T07:40:55;103303.19;;;3.22;100.00
20909;BME280;10614;53.198;6.570;2023-02-28T07:43:00;103302.22;;;3.19;100.00
20909;BME280;10614;53.198;6.570;2023-02-28T07:45:06;103298.72;;;3.18;100.00
20909;BME280;10614;53.198;6.570;2023-02-28T07:47:09;103298.72;;;3.18;100.00
20909;BME280;10614;53.198;6.570;2023-02-28T07:49:11;103298.72;;;3.18;100.00
20909;BME280;10614;53.198;6.570;2023-02-28T07:51:17;103291.63;;;3.12;100.00
20909;BME280;10614;53.198;6.570;2023-02-28T07:53:18;103300.50;;;3.19;100.00
20909;BME280;10614;53.198;6.570;2023-02-28T07:55:20;103301.38;;;3.20;100.00
20909;BME280;10614;53.198;6.570;2023-02-28T07:57:22;103300.50;;;3.19;100.00
20909;BME280;10614;53.198;6.570;2023-02-28T07:59:23;103307.38;;;3.17;100.00
20909;BME280;10614;53.198;6.570;2023-02-28T08:01:28;103299.50;;;3.15;100.00
20909;BME280;10614;53.198;6.570;2023-02-28T08:03:30;103310.81;;;3.16;100.00
20909;BME280;10614;53.198;6.570;2023-02-28T08:05:31;103314.34;;;3.18;100.00
20909;BME280;10614;53.198;6.570;2023-02-28T08:07:33;103317.88;;;3.20;100.00
20909;BME280;10614;53.198;6.570;2023-02-28T08:09:35;103308.41;;;3.22;100.00
20909;BME280;10614;53.198;6.570;2023-02-28T08:11:36;103314.44;;;3.21;100.00
20909;BME280;10614;53.198;6.570;2023-02-28T08:13:38;103305.72;;;3.19;100.00
20909;BME280;10614;53.198;6.570;2023-02-28T08:15:41;103314.59;;;3.26;100.00
20909;BME280;10614;53.198;6.570;2023-02-28T08:17:46;103321.56;;;3.27;100.00
20909;BME280;10614;53.198;6.570;2023-02-28T08:19:48;103320.72;;;3.28;100.00
20909;BME280;10614;53.198;6.570;2023-02-28T08:21:50;103319.94;;;3.30;100.00
20909;BME280;10614;53.198;6.570;2023-02-28T08:23:52;103314.75;;;3.32;100.00
20909;BME280;10614;53.198;6.570;2023-02-28T08:25:54;103317.47;;;3.35;100.00
20909;BME280;10614;53.198;6.570;2023-02-28T08:27:56;103320.97;;;3.37;100.00
20909;BME280;10614;53.198;6.570;2023-02-28T08:29:57;103321.03;;;3.38;100.00
20909;BME280;10614;53.198;6.570;2023-02-28T08:31:59;103317.63;;;3.41;100.00
20909;BME280;10614;53.198;6.570;2023-02-28T08:34:06;103318.56;;;3.43;100.00
20909;BME280;10614;53.198;6.570;2023-02-28T08:36:08;103321.22;;;3.45;100.00
20909;BME280;10614;53.198;6.570;2023-02-28T08:38:10;103330.84;;;3.47;100.00
20909;BME280;10614;53.198;6.570;2023-02-28T08:40:12;103331.81;;;3.51;100.00
20909;BME280;10614;53.198;6.570;2023-02-28T08:42:18;103334.47;;;3.52;100.00
20909;BME280;10614;53.198;6.570;2023-02-28T08:44:19;103340.59;;;3.54;100.00
20909;BME280;10614;53.198;6.570;2023-02-28T08:46:22;103340.66;;;3.56;100.00
20909;BME280;10614;53.198;6.570;2023-02-28T08:48:24;103335.53;;;3.59;100.00
20909;BME280;10614;53.198;6.570;2023-02-28T08:50:28;103328.66;;;3.61;100.00
20909;BME280;10614;53.198;6.570;2023-02-28T08:52:29;103339.09;;;3.63;100.00
20909;BME280;10614;53.198;6.570;2023-02-28T08:54:31;103339.13;;;3.64;100.00
20909;BME280;10614;53.198;6.570;2023-02-28T08:56:34;103342.69;;;3.66;100.00
20909;BME280;10614;53.198;6.570;2023-02-28T08:58:36;103337.47;;;3.66;100.00
20909;BME280;10614;53.198;6.570;2023-02-28T09:00:38;103334.06;;;3.69;100.00
20909;BME280;10614;53.198;6.570;2023-02-28T09:02:40;103334.13;;;3.70;100.00
20909;BME280;10614;53.198;6.570;2023-02-28T09:04:44;103334.13;;;3.70;100.00
20909;BME280;10614;53.198;6.570;2023-02-28T09:06:48;103329.84;;;3.72;100.00
20909;BME280;10614;53.198;6.570;2023-02-28T09:08:50;103331.66;;;3.75;100.00
20909;BME280;10614;53.198;6.570;2023-02-28T09:10:51;103331.66;;;3.76;100.00
20909;BME280;10614;53.198;6.570;2023-02-28T09:12:54;103336.06;;;3.77;100.00
20909;BME280;10614;53.198;6.570;2023-02-28T09:14:56;103337.88;;;3.81;100.00
20909;BME280;10614;53.198;6.570;2023-02-28T09:16:57;103335.25;;;3.80;100.00
20909;BME280;10614;53.198;6.570;2023-02-28T09:18:59;103333.53;;;3.80;100.00
20909;BME280;10614;53.198;6.570;2023-02-28T09:21:02;103327.56;;;3.85;100.00
20909;BME280;10614;53.198;6.570;2023-02-28T09:23:06;103332.78;;;3.85;100.00
20909;BME280;10614;53.198;6.570;2023-02-28T09:25:08;103334.44;;;3.83;100.00
20909;BME280;10614;53.198;6.570;2023-02-28T09:27:10;103326.63;;;3.83;100.00
20909;BME280;10614;53.198;6.570;2023-02-28T09:29:12;103338.00;;;3.85;100.00
20909;BME280;10614;53.198;6.570;2023-02-28T09:31:17;103338.88;;;3.85;100.00
20909;BME280;10614;53.198;6.570;2023-02-28T09:33:21;103330.13;;;3.83;100.00
20909;BME280;10614;53.198;6.570;2023-02-28T09:35:24;103335.41;;;3.86;100.00
20909;BME280;10614;53.198;6.570;2023-02-28T09:37:26;103335.53;;;3.91;100.00
20909;BME280;10614;53.198;6.570;2023-02-28T09:39:31;103332.09;;;3.92;100.00
20909;BME280;10614;53.198;6.570;2023-02-28T09:41:37;103330.44;;;3.94;100.00
20909;BME280;10614;53.198;6.570;2023-02-28T09:43:50;103325.25;;;3.95;100.00
20909;BME280;10614;53.198;6.570;2023-02-28T09:45:56;103332.22;;;3.96;100.00
20909;BME280;10614;53.198;6.570;2023-02-28T09:48:03;103328.81;;;3.99;100.00
20909;BME280;10614;53.198;6.570;2023-02-28T09:50:17;103327.97;;;4.00;100.00
20909;BME280;10614;53.198;6.570;2023-02-28T09:52:28;103329.75;;;4.01;100.00
20909;BME280;10614;53.198;6.570;2023-02-28T09:54:33;103333.19;;;4.00;100.00
20909;BME280;10614;53.198;6.570;2023-02-28T09:56:38;103336.69;;;4.00;100.00
20909;BME280;10614;53.198;6.570;2023-02-28T09:58:45;103326.28;;;4.00;100.00
20909;BME280;10614;53.198;6.570;2023-02-28T10:00:53;103330.69;;;4.03;100.00
20909;BME280;10614;53.198;6.570;2023-02-28T10:03:05;103333.34;;;4.06;100.00
20909;BME280;10614;53.198;6.570;2023-02-28T10:05:11;103331.72;;;4.10;100.00
20909;BME280;10614;53.198;6.570;2023-02-28T10:07:21;103331.75;;;4.11;100.00
20909;BME280;10614;53.198;6.570;2023-02-28T10:09:27;103336.22;;;4.15;100.00
20909;BME280;10614;53.198;6.570;2023-02-28T10:11:32;103334.47;;;4.16;100.00
20909;BME280;10614;53.198;6.570;2023-02-28T10:13:38;103331.06;;;4.17;100.00
20909;BME280;10614;53.198;6.570;2023-02-28T10:15:45;103332.88;;;4.21;100.00
20909;BME280;10614;53.198;6.570;2023-02-28T10:17:53;103339.88;;;4.23;100.00
20909;BME280;10614;53.198;6.570;2023-02-28T10:20:00;103336.47;;;4.25;100.00
20909;BME280;10614;53.198;6.570;2023-02-28T10:22:11;103340.00;;;4.27;100.00
20909;BME280;10614;53.198;6.570;2023-02-28T10:24:21;103333.06;;;4.27;100.00
20909;BME280;10614;53.198;6.570;2023-02-28T10:26:26;103341.72;;;4.26;100.00
20909;BME280;10614;53.198;6.570;2023-02-28T10:28:31;103339.13;;;4.28;100.00
20909;BME280;10614;53.198;6.570;2023-02-28T10:30:33;103333.09;;;4.29;100.00
20909;BME280;10614;53.198;6.570;2023-02-28T10:32:36;103338.38;;;4.32;100.00
20909;BME280;10614;53.198;6.570;2023-02-28T10:34:40;103336.69;;;4.34;100.00
20909;BME280;10614;53.198;6.570;2023-02-28T10:36:42;103339.38;;;4.37;100.00
20909;BME280;10614;53.198;6.570;2023-02-28T10:38:46;103333.34;;;4.39;100.00
20909;BME280;10614;53.198;6.570;2023-02-28T10:40:48;103343.78;;;4.39;100.00
20909;BME280;10614;53.198;6.570;2023-02-28T10:42:55;103342.09;;;4.41;100.00
20909;BME280;10614;53.198;6.570;2023-02-28T10:45:11;103343.91;;;4.44;100.00
20909;BME280;10614;53.198;6.570;2023-02-28T10:47:15;103342.22;;;4.46;100.00
20909;BME280;10614;53.198;6.570;2023-02-28T10:49:20;103344.84;;;4.46;100.00
20909;BME280;10614;53.198;6.570;2023-02-28T10:51:23;103337.94;;;4.48;100.00
20909;BME280;10614;53.198;6.570;2023-02-28T10:53:32;103344.09;;;4.52;100.00
20909;BME280;10614;53.198;6.570;2023-02-28T10:55:35;103338.00;;;4.51;100.00
20909;BME280;10614;53.198;6.570;2023-02-28T10:57:36;103337.19;;;4.54;100.00
20909;BME280;10614;53.198;6.570;2023-02-28T10:59:38;103329.47;;;4.58;100.00
20909;BME280;10614;53.198;6.570;2023-02-28T11:01:43;103324.38;;;4.61;100.00